createdAt,value
2022-11-17T00:00:34.350Z,64.72
2022-11-17T00:03:01.076Z,77.22
2022-11-17T00:05:27.810Z,69.93
2022-11-17T00:07:54.645Z,63.53
2022-11-17T00:10:21.416Z,67.97
2022-11-17T00:13:06.626Z,69.82
2022-11-17T00:15:33.446Z,72.63
2022-11-17T00:18:18.907Z,73.38
2022-11-17T00:21:04.371Z,69.10
2022-11-17T00:23:47.185Z,65.80
2022-11-17T00:26:16.018Z,61.65
2022-11-17T00:28:42.845Z,70.85
2022-11-17T00:31:30.661Z,69.90
2022-11-17T00:34:06.311Z,56.47
2022-11-17T00:36:44.747Z,66.22
2022-11-17T00:39:13.055Z,62.17
2022-11-17T00:41:40.038Z,63.00
2022-11-17T00:44:07.335Z,69.47
2022-11-17T00:46:35.778Z,68.82
2022-11-17T00:49:03.031Z,69.65
2022-11-17T00:51:29.982Z,64.70
2022-11-17T00:53:56.825Z,63.22
2022-11-17T00:56:23.699Z,64.32
2022-11-17T00:58:50.493Z,77.90
2022-11-17T01:01:17.789Z,69.30
2022-11-17T01:03:44.881Z,64.95
2022-11-17T01:06:20.151Z,67.30
2022-11-17T01:08:47.443Z,64.00
2022-11-17T01:11:16.574Z,55.30
2022-11-17T01:13:45.252Z,70.93
2022-11-17T01:16:18.375Z,67.32
2022-11-17T01:18:46.774Z,64.47
2022-11-17T01:21:16.454Z,71.45
2022-11-17T01:23:44.725Z,73.38
2022-11-17T01:26:14.834Z,68.82
2022-11-17T01:28:42.410Z,69.75
2022-11-17T01:31:15.092Z,67.43
2022-11-17T01:33:41.959Z,74.22
2022-11-17T01:36:18.145Z,69.65
2022-11-17T01:38:45.868Z,75.90
2022-11-17T01:41:28.647Z,70.03
2022-11-17T01:43:59.475Z,77.55
2022-11-17T01:46:32.037Z,71.83
2022-11-17T01:49:25.446Z,72.82
2022-11-17T01:52:01.910Z,77.57
2022-11-17T01:54:30.085Z,81.18
2022-11-17T01:57:05.354Z,74.45
2022-11-17T01:59:48.999Z,79.75
2022-11-17T02:02:15.857Z,72.95
2022-11-17T02:04:53.444Z,83.57
2022-11-17T02:07:27.183Z,85.97
2022-11-17T02:09:55.717Z,81.32
2022-11-17T02:12:25.670Z,80.05
2022-11-17T02:14:54.182Z,77.97
2022-11-17T02:17:23.303Z,77.85
2022-11-17T02:20:03.568Z,83.93
2022-11-17T02:22:48.758Z,88.78
2022-11-17T02:25:40.453Z,85.88
2022-11-17T02:28:09.990Z,85.70
2022-11-17T02:31:03.074Z,85.72
2022-11-17T02:33:48.352Z,79.18
2022-11-17T02:36:39.772Z,79.93
2022-11-17T02:39:21.624Z,79.20
2022-11-17T02:42:49.290Z,82.28
2022-11-17T02:45:24.745Z,80.93
2022-11-17T02:47:54.645Z,76.63
2022-11-17T02:50:28.041Z,72.95
2022-11-17T02:52:55.719Z,81.05
2022-11-17T02:55:22.451Z,75.00
2022-11-17T02:57:49.864Z,76.25
2022-11-17T03:00:20.748Z,70.20
2022-11-17T03:03:10.237Z,68.40
2022-11-17T03:06:10.276Z,66.82
2022-11-17T03:08:50.661Z,65.05
2022-11-17T03:11:23.011Z,69.53
2022-11-17T03:13:51.965Z,69.30
2022-11-17T03:16:35.737Z,67.43
2022-11-17T03:19:19.514Z,82.38
2022-11-17T03:22:13.077Z,83.68
2022-11-17T03:24:45.467Z,103.05
2022-11-17T03:27:25.352Z,64.97
2022-11-17T03:29:57.562Z,83.18
2022-11-17T03:32:27.107Z,103.25
2022-11-17T03:35:01.451Z,73.53
2022-11-17T03:37:32.888Z,98.65
2022-11-17T03:40:08.737Z,77.10
2022-11-17T03:42:39.165Z,87.60
2022-11-17T03:45:19.513Z,107.68
2022-11-17T03:47:49.761Z,188.15
2022-11-17T03:50:22.491Z,91.70
2022-11-17T03:52:49.663Z,131.57
2022-11-17T03:55:17.083Z,112.03
2022-11-17T03:58:03.341Z,101.07
2022-11-17T04:00:30.685Z,107.05
2022-11-17T04:03:00.878Z,162.45
2022-11-17T04:05:28.076Z,258.75
2022-11-17T04:07:54.821Z,223.73
2022-11-17T04:10:25.139Z,156.63
2022-11-17T04:13:11.468Z,147.43
2022-11-17T04:15:56.600Z,99.25
2022-11-17T04:18:23.764Z,81.90
2022-11-17T04:20:52.790Z,84.60
2022-11-17T04:23:20.176Z,95.57
2022-11-17T04:26:10.651Z,98.85
2022-11-17T04:28:43.790Z,90.20
2022-11-17T04:31:25.949Z,85.93
2022-11-17T04:34:01.309Z,79.50
2022-11-17T04:36:34.590Z,80.78
2022-11-17T04:39:01.808Z,85.20
2022-11-17T04:41:48.261Z,77.97
2022-11-17T04:44:17.499Z,85.70
2022-11-17T04:46:48.645Z,75.38
2022-11-17T04:49:16.939Z,78.57
2022-11-17T04:51:43.787Z,83.65
2022-11-17T04:54:12.544Z,78.40
2022-11-17T04:56:39.604Z,69.15
2022-11-17T04:59:06.534Z,74.47
2022-11-17T05:01:33.694Z,68.05
2022-11-17T05:04:05.634Z,74.57
2022-11-17T05:06:33.800Z,67.85
2022-11-17T05:09:09.622Z,72.72
2022-11-17T05:11:55.317Z,66.40
2022-11-17T05:14:24.236Z,69.85
2022-11-17T05:17:10.052Z,72.68
2022-11-17T05:19:46.471Z,72.97
2022-11-17T05:22:41.518Z,71.35
2022-11-17T05:25:09.403Z,74.88
2022-11-17T05:27:36.826Z,75.43
2022-11-17T05:30:06.265Z,66.10
2022-11-17T05:32:33.072Z,66.82
2022-11-17T05:34:59.835Z,68.20
2022-11-17T05:37:26.655Z,69.55
2022-11-17T05:39:53.473Z,65.32
2022-11-17T05:42:20.326Z,67.30
2022-11-17T05:44:48.573Z,68.70
2022-11-17T05:47:15.514Z,62.60
2022-11-17T05:49:42.251Z,72.43
2022-11-17T05:52:09.051Z,66.10
2022-11-17T05:54:35.749Z,62.55
2022-11-17T05:57:11.959Z,60.78
2022-11-17T05:59:44.933Z,61.42
2022-11-17T06:02:19.026Z,65.72
2022-11-17T06:04:48.558Z,62.33
2022-11-17T06:07:17.776Z,63.78
2022-11-17T06:09:45.524Z,67.13
2022-11-17T06:12:12.324Z,59.72
2022-11-17T06:14:39.811Z,65.35
2022-11-17T06:17:22.401Z,60.97
2022-11-17T06:19:55.773Z,61.72
2022-11-17T06:22:24.177Z,68.47
2022-11-17T06:24:51.021Z,68.97
2022-11-17T06:27:17.990Z,91.18
2022-11-17T06:29:47.003Z,68.20
2022-11-17T06:32:15.597Z,67.25
2022-11-17T06:34:44.332Z,69.47
2022-11-17T06:37:11.935Z,59.45
2022-11-17T06:39:38.735Z,63.78
2022-11-17T06:42:05.621Z,60.28
2022-11-17T06:44:32.382Z,56.15
2022-11-17T06:46:59.158Z,62.47
2022-11-17T06:49:25.897Z,56.08
2022-11-17T06:51:52.651Z,62.33
2022-11-17T06:54:19.527Z,57.05
2022-11-17T06:56:47.022Z,58.70
2022-11-17T06:59:16.114Z,55.17
2022-11-17T07:01:43.597Z,57.08
2022-11-17T07:04:10.556Z,64.07
2022-11-17T07:06:37.912Z,62.60
2022-11-17T07:09:05.643Z,61.80
2022-11-17T07:11:35.894Z,60.95
2022-11-17T07:14:02.866Z,60.83
2022-11-17T07:16:30.871Z,56.60
2022-11-17T07:18:59.318Z,55.60
2022-11-17T07:21:26.273Z,58.92
2022-11-17T07:23:53.123Z,51.55
2022-11-17T07:26:20.001Z,52.75
2022-11-17T07:28:46.857Z,55.10
2022-11-17T07:31:13.751Z,53.28
2022-11-17T07:33:40.649Z,49.83
2022-11-17T07:36:10.337Z,62.15
2022-11-17T07:38:40.533Z,57.60
2022-11-17T07:41:09.417Z,60.78
2022-11-17T07:43:37.081Z,55.38
2022-11-17T07:46:14.795Z,55.67
2022-11-17T07:48:44.312Z,59.83
2022-11-17T07:51:12.351Z,53.55
2022-11-17T07:53:39.177Z,54.13
2022-11-17T07:56:08.244Z,54.10
2022-11-17T07:58:35.541Z,53.10
2022-11-17T08:01:11.727Z,46.33
2022-11-17T08:03:38.763Z,48.28
2022-11-17T08:06:07.148Z,49.33
2022-11-17T08:08:34.894Z,50.22
2022-11-17T08:11:10.701Z,47.40
2022-11-17T08:13:38.774Z,47.22
2022-11-17T08:16:06.759Z,46.92
2022-11-17T08:18:34.627Z,45.03
2022-11-17T08:21:13.888Z,48.13
2022-11-17T08:23:42.071Z,45.13
2022-11-17T08:26:11.034Z,51.35
2022-11-17T08:28:38.688Z,44.33
2022-11-17T08:31:07.814Z,45.75
2022-11-17T08:33:34.901Z,49.83
2022-11-17T08:36:03.947Z,48.35
2022-11-17T08:38:31.331Z,44.45
2022-11-17T08:41:08.639Z,47.28
2022-11-17T08:43:36.060Z,46.92
2022-11-17T08:46:03.241Z,45.58
2022-11-17T08:48:31.748Z,47.13
2022-11-17T08:51:04.185Z,46.85
2022-11-17T08:53:31.104Z,51.35
2022-11-17T08:55:58.302Z,49.42
2022-11-17T08:58:25.291Z,44.38
2022-11-17T09:00:52.220Z,40.22
2022-11-17T09:03:19.097Z,45.45
2022-11-17T09:05:49.783Z,39.05
2022-11-17T09:11:09.756Z,38.90
2022-11-17T09:13:37.752Z,74.72
2022-11-17T09:16:07.155Z,63.40
2022-11-17T09:18:35.056Z,40.53
2022-11-17T09:21:04.333Z,40.88
2022-11-17T09:23:31.772Z,40.35
2022-11-17T09:25:59.206Z,41.42
2022-11-17T09:28:26.425Z,41.03
2022-11-17T09:30:53.504Z,40.90
2022-11-17T09:33:20.450Z,40.47
2022-11-17T09:35:47.300Z,42.25
2022-11-17T09:38:14.052Z,40.95
2022-11-17T09:40:41.970Z,40.25
2022-11-17T09:43:28.664Z,43.83
2022-11-17T09:46:07.551Z,41.67
2022-11-17T09:49:13.272Z,42.58
2022-11-17T09:51:44.811Z,45.65
2022-11-17T09:54:41.006Z,40.75
2022-11-17T09:57:22.538Z,37.88
2022-11-17T09:59:59.492Z,39.75
2022-11-17T10:02:26.397Z,37.28
2022-11-17T10:04:53.645Z,37.38
2022-11-17T10:07:21.106Z,39.38
2022-11-17T10:09:51.815Z,38.25
2022-11-17T10:12:22.161Z,37.95
2022-11-17T10:14:49.808Z,40.72
2022-11-17T10:17:17.090Z,34.28
2022-11-17T10:19:45.415Z,40.28
2022-11-17T10:22:20.934Z,39.47
2022-11-17T10:24:55.349Z,38.00
2022-11-17T10:27:35.079Z,39.92
2022-11-17T10:30:19.799Z,39.28
2022-11-17T10:32:50.939Z,37.90
2022-11-17T10:35:26.313Z,42.03
2022-11-17T10:37:58.654Z,40.38
2022-11-17T10:40:31.389Z,41.13
2022-11-17T10:43:14.046Z,36.75
2022-11-17T10:45:49.091Z,38.42
2022-11-17T10:48:35.659Z,40.08
2022-11-17T10:51:27.220Z,36.55
2022-11-17T10:54:16.807Z,44.05
2022-11-17T10:56:48.048Z,40.05
2022-11-17T10:59:28.288Z,38.17
2022-11-17T11:01:55.288Z,34.00
2022-11-17T11:04:42.060Z,38.20
2022-11-17T11:07:23.363Z,44.38
2022-11-17T11:09:50.216Z,37.55
2022-11-17T11:12:24.981Z,36.67
2022-11-17T11:14:56.174Z,35.40
2022-11-17T11:17:23.032Z,38.50
2022-11-17T11:19:53.025Z,39.50
2022-11-17T11:22:33.328Z,35.55
2022-11-17T11:25:37.812Z,36.13
2022-11-17T11:28:10.399Z,37.78
2022-11-17T11:31:05.030Z,37.72
2022-11-17T11:33:37.891Z,33.88
2022-11-17T11:36:15.354Z,37.83
2022-11-17T11:39:00.442Z,35.80
2022-11-17T11:42:07.485Z,39.30
2022-11-17T11:44:34.632Z,34.67
2022-11-17T11:47:19.687Z,35.78
2022-11-17T11:49:55.696Z,39.75
2022-11-17T11:52:26.904Z,41.67
2022-11-17T11:55:05.549Z,35.97
2022-11-17T11:57:47.528Z,40.10
2022-11-17T12:02:49.792Z,40.70
2022-11-17T12:05:55.528Z,42.33
2022-11-17T12:08:48.023Z,40.13
2022-11-17T12:11:35.132Z,36.78
2022-11-17T12:14:04.963Z,35.47
2022-11-17T12:16:34.811Z,37.70
2022-11-17T12:19:01.850Z,36.92
2022-11-17T12:21:29.726Z,35.47
2022-11-17T12:24:25.192Z,38.88
2022-11-17T12:26:52.031Z,34.70
2022-11-17T12:29:21.603Z,34.83
2022-11-17T12:31:50.563Z,40.80
2022-11-17T12:34:23.447Z,35.08
2022-11-17T12:37:22.078Z,34.88
2022-11-17T12:40:05.433Z,38.33
2022-11-17T12:42:33.586Z,33.55
2022-11-17T12:45:08.856Z,35.20
2022-11-17T12:47:44.952Z,35.63
2022-11-17T12:50:18.551Z,30.52
2022-11-17T12:53:17.228Z,31.90
2022-11-17T12:56:02.089Z,32.13
2022-11-17T12:58:35.125Z,35.08
2022-11-17T13:01:44.873Z,31.27
2022-11-17T13:04:17.070Z,30.52
2022-11-17T13:07:02.247Z,31.35
2022-11-17T13:09:35.045Z,28.27
2022-11-17T13:12:07.541Z,32.00
2022-11-17T13:14:36.237Z,26.33
2022-11-17T13:17:04.097Z,31.73
2022-11-17T13:19:39.172Z,29.75
2022-11-17T13:22:21.463Z,29.65
2022-11-17T13:24:50.213Z,29.08
2022-11-17T13:27:26.331Z,29.50
2022-11-17T13:30:22.299Z,30.92
2022-11-17T13:32:50.468Z,27.67
2022-11-17T13:35:23.259Z,27.83
2022-11-17T13:38:19.968Z,28.10
2022-11-17T13:40:49.973Z,27.90
2022-11-17T13:43:20.497Z,22.77
2022-11-17T13:45:48.698Z,25.08
2022-11-17T13:48:35.055Z,26.13
2022-11-17T13:51:23.980Z,27.10
2022-11-17T13:53:54.843Z,25.90
2022-11-17T13:56:34.982Z,28.92
2022-11-17T13:59:06.464Z,25.42
2022-11-17T14:01:34.010Z,24.33
2022-11-17T14:04:33.463Z,25.98
2022-11-17T14:07:02.670Z,32.30
2022-11-17T14:09:32.172Z,25.48
2022-11-17T14:11:59.331Z,24.27
2022-11-17T14:14:40.107Z,25.17
2022-11-17T14:17:22.393Z,25.05
2022-11-17T14:19:49.273Z,23.38
2022-11-17T14:22:22.396Z,24.33
2022-11-17T14:24:51.163Z,23.67
2022-11-17T14:27:27.095Z,24.35
2022-11-17T14:29:54.200Z,25.02
2022-11-17T14:32:21.390Z,25.75
2022-11-17T14:34:48.212Z,27.33
2022-11-17T14:37:15.412Z,22.58
2022-11-17T14:39:42.214Z,24.52
2022-11-17T14:42:13.700Z,26.08
2022-11-17T14:44:40.561Z,25.42
2022-11-17T14:47:07.449Z,22.90
2022-11-17T14:49:34.382Z,26.90
2022-11-17T14:52:02.523Z,27.90
2022-11-17T14:54:29.359Z,25.08
2022-11-17T14:56:56.210Z,27.35
2022-11-17T14:59:22.975Z,22.77
2022-11-17T15:01:50.141Z,29.35
2022-11-17T15:07:03.943Z,27.40
2022-11-17T15:09:30.864Z,27.88
2022-11-17T15:11:57.690Z,33.20
2022-11-17T15:14:24.530Z,32.70
2022-11-17T15:16:51.412Z,33.42
2022-11-17T15:19:18.257Z,39.67
2022-11-17T15:21:45.041Z,40.47
2022-11-17T15:24:11.819Z,33.47
2022-11-17T15:26:38.836Z,36.42
2022-11-17T15:29:05.759Z,41.70
2022-11-17T15:31:32.543Z,36.22
2022-11-17T15:34:01.140Z,41.92
2022-11-17T15:36:27.983Z,38.03
2022-11-17T15:38:54.884Z,35.05
2022-11-17T15:41:21.836Z,35.00
2022-11-17T15:43:48.698Z,36.03
2022-11-17T15:46:17.608Z,34.78
2022-11-17T15:48:46.938Z,38.08
2022-11-17T15:51:16.109Z,35.95
2022-11-17T15:53:44.629Z,33.97
2022-11-17T15:56:14.673Z,35.50
2022-11-17T15:58:43.189Z,39.08
2022-11-17T16:01:12.454Z,37.55
2022-11-17T16:03:40.857Z,40.78
2022-11-17T16:06:08.915Z,32.50
2022-11-17T16:08:36.406Z,39.78
2022-11-17T16:11:03.561Z,38.47
2022-11-17T16:13:31.820Z,34.63
2022-11-17T16:15:58.802Z,34.88
2022-11-17T16:18:25.727Z,34.17
2022-11-17T16:20:52.704Z,36.72
2022-11-17T16:23:20.243Z,30.10
2022-11-17T16:25:48.492Z,35.38
2022-11-17T16:28:16.862Z,35.58
2022-11-17T16:30:43.941Z,35.10
2022-11-17T16:33:12.621Z,37.85
2022-11-17T16:35:40.597Z,33.80
2022-11-17T16:38:08.438Z,30.42
2022-11-17T16:40:37.682Z,38.05
2022-11-17T16:43:04.480Z,35.10
2022-11-17T16:45:31.523Z,38.58
2022-11-17T16:47:59.359Z,33.78
2022-11-17T16:50:26.237Z,37.67
2022-11-17T16:52:53.113Z,33.30
2022-11-17T16:55:19.908Z,39.95
2022-11-17T16:57:46.688Z,39.97
2022-11-17T17:00:15.143Z,30.88
2022-11-17T17:02:42.051Z,35.10
2022-11-17T17:05:09.541Z,35.50
2022-11-17T17:07:36.501Z,35.60
2022-11-17T17:10:03.630Z,47.58
2022-11-17T17:12:30.467Z,39.95
2022-11-17T17:14:57.352Z,39.40
2022-11-17T17:17:24.417Z,39.35
2022-11-17T17:19:51.405Z,37.35
2022-11-17T17:22:18.249Z,40.83
2022-11-17T17:24:45.121Z,41.10
2022-11-17T17:27:11.918Z,38.28
2022-11-17T17:29:38.692Z,43.30
2022-11-17T17:32:05.614Z,40.08
2022-11-17T17:34:32.417Z,44.47
2022-11-17T17:36:59.276Z,39.42
2022-11-17T17:39:26.125Z,39.25
2022-11-17T17:41:53.096Z,57.13
2022-11-17T17:44:20.101Z,35.63
2022-11-17T17:46:47.411Z,35.25
2022-11-17T17:49:14.963Z,36.25
2022-11-17T17:51:44.380Z,39.33
2022-11-17T17:54:17.339Z,36.63
2022-11-17T17:56:45.006Z,39.22
2022-11-17T17:59:13.572Z,38.47
2022-11-17T18:01:42.277Z,33.35
2022-11-17T18:04:15.346Z,46.42
2022-11-17T18:06:56.623Z,43.25
2022-11-17T18:09:23.557Z,41.67
2022-11-17T18:11:51.273Z,44.47
2022-11-17T18:14:23.942Z,44.72
2022-11-17T18:16:52.186Z,40.60
2022-11-17T18:19:19.425Z,36.80
2022-11-17T18:21:46.550Z,39.53
2022-11-17T18:24:13.996Z,38.97
2022-11-17T18:26:41.372Z,40.67
2022-11-17T18:29:18.673Z,39.75
2022-11-17T18:31:47.380Z,104.43
2022-11-17T18:34:23.137Z,100.80
2022-11-17T18:36:51.635Z,77.70
2022-11-17T18:39:19.110Z,73.20
2022-11-17T18:41:46.493Z,53.17
2022-11-17T18:44:19.560Z,64.13
2022-11-17T18:46:47.188Z,63.55
2022-11-17T18:49:14.438Z,49.60
2022-11-17T18:51:41.635Z,47.72
2022-11-17T18:54:10.924Z,47.60
2022-11-17T18:56:38.408Z,42.80
2022-11-17T18:59:12.673Z,47.95
2022-11-17T19:01:41.291Z,48.42
2022-11-17T19:04:08.705Z,42.65
2022-11-17T19:06:35.718Z,46.75
2022-11-17T19:09:02.579Z,45.22
2022-11-17T19:11:33.731Z,39.45
2022-11-17T19:14:07.825Z,44.50
2022-11-17T19:16:42.651Z,44.78
2022-11-17T19:19:11.035Z,43.55
2022-11-17T19:21:37.848Z,44.88
2022-11-17T19:24:04.967Z,41.03
2022-11-17T19:26:33.716Z,38.60
2022-11-17T19:29:16.083Z,39.47
2022-11-17T19:31:44.817Z,40.25
2022-11-17T19:34:11.869Z,44.00
2022-11-17T19:36:38.764Z,40.15
2022-11-17T19:39:05.834Z,35.45
2022-11-17T19:41:37.544Z,39.95
2022-11-17T19:44:07.117Z,41.25
2022-11-17T19:46:36.326Z,45.13
2022-11-17T19:49:04.454Z,44.53
2022-11-17T19:51:33.457Z,39.88
2022-11-17T19:54:06.221Z,43.08
2022-11-17T19:56:33.152Z,40.60
2022-11-17T19:59:00.127Z,35.33
2022-11-17T20:01:28.664Z,39.90
2022-11-17T20:03:57.276Z,41.25
2022-11-17T20:06:27.429Z,35.70
2022-11-17T20:08:55.498Z,37.45
2022-11-17T20:11:27.230Z,40.10
2022-11-17T20:13:57.176Z,36.55
2022-11-17T20:16:26.417Z,38.85
2022-11-17T20:18:55.666Z,36.00
2022-11-17T20:21:22.949Z,43.97
2022-11-17T20:23:50.151Z,40.28
2022-11-17T20:26:22.866Z,34.53
2022-11-17T20:28:50.527Z,34.88
2022-11-17T20:31:24.191Z,41.13
2022-11-17T20:33:52.266Z,41.25
2022-11-17T20:36:21.117Z,38.95
2022-11-17T20:38:52.034Z,41.15
2022-11-17T20:41:21.034Z,37.10
2022-11-17T20:43:49.525Z,38.67
2022-11-17T20:46:16.884Z,35.45
2022-11-17T20:48:44.364Z,37.42
2022-11-17T20:51:13.548Z,36.55
2022-11-17T20:53:40.754Z,34.35
2022-11-17T20:56:09.321Z,35.13
2022-11-17T20:58:36.604Z,37.58
2022-11-17T21:01:15.305Z,38.10
2022-11-17T21:03:43.052Z,39.15
2022-11-17T21:06:10.390Z,53.90
2022-11-17T21:08:39.738Z,53.05
2022-11-17T21:11:09.823Z,44.50
2022-11-17T21:13:37.370Z,46.15
2022-11-17T21:16:15.117Z,45.40
2022-11-17T21:18:46.912Z,47.83
2022-11-17T21:23:41.798Z,47.63
2022-11-17T21:26:11.041Z,40.78
2022-11-17T21:28:38.525Z,38.42
2022-11-17T21:31:17.023Z,41.10
2022-11-17T21:33:45.071Z,36.20
2022-11-17T21:36:16.956Z,46.45
2022-11-17T21:38:47.351Z,44.00
2022-11-17T21:41:16.655Z,43.13
2022-11-17T21:43:44.641Z,39.83
2022-11-17T21:46:20.402Z,42.15
2022-11-17T21:48:47.675Z,41.40
2022-11-17T21:51:18.311Z,39.30
2022-11-17T21:53:45.599Z,38.70
2022-11-17T21:56:13.014Z,40.53
2022-11-17T21:58:40.164Z,42.63
2022-11-17T22:01:09.461Z,39.60
2022-11-17T22:03:36.905Z,41.60
2022-11-17T22:06:11.112Z,42.03
2022-11-17T22:08:39.808Z,57.75
2022-11-17T22:11:09.027Z,49.72
2022-11-17T22:13:36.302Z,48.40
2022-11-17T22:16:21.175Z,48.30
2022-11-17T22:18:47.975Z,47.97
2022-11-17T22:21:14.813Z,54.38
2022-11-17T22:23:41.996Z,47.80
2022-11-17T22:26:11.120Z,45.33
2022-11-17T22:28:37.942Z,46.67
2022-11-17T22:31:06.700Z,48.25
2022-11-17T22:33:33.548Z,51.15
2022-11-17T22:36:01.112Z,53.72
2022-11-17T22:38:30.136Z,50.05
2022-11-17T22:41:04.680Z,57.78
2022-11-17T22:43:31.528Z,52.42
2022-11-17T22:46:02.522Z,53.42
2022-11-17T22:48:29.409Z,69.70
2022-11-17T22:51:00.297Z,56.63
2022-11-17T22:53:28.135Z,51.00
2022-11-17T22:55:55.115Z,60.33
2022-11-17T22:58:21.919Z,69.40
2022-11-17T23:00:48.778Z,56.53
2022-11-17T23:03:15.699Z,58.00
2022-11-17T23:05:42.494Z,51.67
2022-11-17T23:08:10.020Z,60.20
2022-11-17T23:10:37.469Z,56.20
2022-11-17T23:13:04.314Z,67.68
2022-11-17T23:15:32.466Z,62.05
2022-11-17T23:17:59.536Z,57.80
2022-11-17T23:20:26.391Z,65.10
2022-11-17T23:22:54.791Z,61.13
2022-11-17T23:25:22.051Z,65.20
2022-11-17T23:27:48.845Z,66.40
2022-11-17T23:30:15.956Z,67.03
2022-11-17T23:32:42.848Z,52.63
2022-11-17T23:35:09.669Z,52.05
2022-11-17T23:37:36.494Z,56.88
2022-11-17T23:40:03.400Z,63.20
2022-11-17T23:42:32.691Z,66.10
2022-11-17T23:45:00.249Z,60.20
2022-11-17T23:47:27.063Z,53.97
2022-11-17T23:49:53.878Z,57.28
2022-11-17T23:52:20.683Z,58.28
2022-11-17T23:54:47.440Z,52.72
2022-11-17T23:57:14.267Z,62.10
2022-11-17T23:59:41.060Z,56.47
